Terminal Aerodrome Forecast
Issued by NWS Wichita, KS

Home | Current Version | Previous Version | Graphics & Text | Print | Product List | Glossary On
Versions: 1 2 3 4 5 6 7 8 9 10 11 12 13
000
FTUS43 KICT 042328
TAFICT
TAF
KICT 042328Z 0500/0524 18018G25KT P6SM SCT070 BKN250
     FM050100 16015KT P6SM SCT080 BKN250
     FM051500 16015G22KT P6SM SCT050 BKN150=

USA.gov is the U.S. government's official web portal to all federal, state and local government web resources and services.